sensor_id;sensor_type;location;lat;lon;timestamp;P1;durP1;ratioP1;P2;durP2;ratioP2
20754;SDS011;26385;48.470;7.938;2022-07-10T00:01:47;3.60;;;3.30;;
20754;SDS011;26385;48.470;7.938;2022-07-10T00:04:13;4.07;;;3.30;;
20754;SDS011;26385;48.470;7.938;2022-07-10T00:06:38;4.13;;;3.25;;
20754;SDS011;26385;48.470;7.938;2022-07-10T00:09:06;4.38;;;3.42;;
20754;SDS011;26385;48.470;7.938;2022-07-10T00:11:31;4.10;;;3.42;;
20754;SDS011;26385;48.470;7.938;2022-07-10T00:13:57;3.92;;;3.30;;
20754;SDS011;26385;48.470;7.938;2022-07-10T00:16:22;5.05;;;3.63;;
20754;SDS011;26385;48.470;7.938;2022-07-10T00:18:49;3.92;;;3.38;;
20754;SDS011;26385;48.470;7.938;2022-07-10T00:21:14;3.53;;;3.22;;
20754;SDS011;26385;48.470;7.938;2022-07-10T00:23:41;3.97;;;3.63;;
20754;SDS011;26385;48.470;7.938;2022-07-10T00:26:06;4.00;;;3.58;;
20754;SDS011;26385;48.470;7.938;2022-07-10T00:28:31;3.78;;;3.47;;
20754;SDS011;26385;48.470;7.938;2022-07-10T00:30:57;3.78;;;3.47;;
20754;SDS011;26385;48.470;7.938;2022-07-10T00:33:22;4.60;;;3.30;;
20754;SDS011;26385;48.470;7.938;2022-07-10T00:35:47;4.22;;;3.78;;
20754;SDS011;26385;48.470;7.938;2022-07-10T00:38:12;4.55;;;3.88;;
20754;SDS011;26385;48.470;7.938;2022-07-10T00:40:38;5.78;;;3.80;;
20754;SDS011;26385;48.470;7.938;2022-07-10T00:43:03;4.00;;;3.70;;
20754;SDS011;26385;48.470;7.938;2022-07-10T00:45:33;5.43;;;4.30;;
20754;SDS011;26385;48.470;7.938;2022-07-10T00:47:58;4.72;;;3.78;;
20754;SDS011;26385;48.470;7.938;2022-07-10T00:50:25;4.20;;;3.80;;
20754;SDS011;26385;48.470;7.938;2022-07-10T00:52:50;4.20;;;3.83;;
20754;SDS011;26385;48.470;7.938;2022-07-10T00:55:16;4.00;;;3.60;;
20754;SDS011;26385;48.470;7.938;2022-07-10T00:57:41;4.97;;;4.15;;
20754;SDS011;26385;48.470;7.938;2022-07-10T01:00:07;4.22;;;3.50;;
20754;SDS011;26385;48.470;7.938;2022-07-10T01:02:34;5.32;;;4.03;;
20754;SDS011;26385;48.470;7.938;2022-07-10T01:05:00;4.22;;;3.83;;
20754;SDS011;26385;48.470;7.938;2022-07-10T01:07:25;4.85;;;4.20;;
20754;SDS011;26385;48.470;7.938;2022-07-10T01:09:51;5.15;;;4.10;;
20754;SDS011;26385;48.470;7.938;2022-07-10T01:12:16;4.90;;;4.20;;
20754;SDS011;26385;48.470;7.938;2022-07-10T01:14:42;4.63;;;4.20;;
20754;SDS011;26385;48.470;7.938;2022-07-10T01:17:08;5.03;;;4.00;;
20754;SDS011;26385;48.470;7.938;2022-07-10T01:19:34;6.50;;;4.22;;
20754;SDS011;26385;48.470;7.938;2022-07-10T01:21:59;4.57;;;3.95;;
20754;SDS011;26385;48.470;7.938;2022-07-10T01:24:24;4.30;;;3.85;;
20754;SDS011;26385;48.470;7.938;2022-07-10T01:26:50;4.72;;;4.25;;
20754;SDS011;26385;48.470;7.938;2022-07-10T01:29:15;5.45;;;3.88;;
20754;SDS011;26385;48.470;7.938;2022-07-10T01:31:40;7.35;;;4.30;;
20754;SDS011;26385;48.470;7.938;2022-07-10T01:34:07;4.65;;;4.25;;
20754;SDS011;26385;48.470;7.938;2022-07-10T01:36:34;4.40;;;4.00;;
20754;SDS011;26385;48.470;7.938;2022-07-10T01:38:59;4.82;;;4.40;;
20754;SDS011;26385;48.470;7.938;2022-07-10T01:41:25;4.78;;;4.20;;
20754;SDS011;26385;48.470;7.938;2022-07-10T01:43:52;5.05;;;4.55;;
20754;SDS011;26385;48.470;7.938;2022-07-10T01:46:18;5.13;;;4.63;;
20754;SDS011;26385;48.470;7.938;2022-07-10T01:48:44;5.10;;;4.60;;
20754;SDS011;26385;48.470;7.938;2022-07-10T01:51:10;4.93;;;4.40;;
20754;SDS011;26385;48.470;7.938;2022-07-10T01:53:36;4.80;;;4.28;;
20754;SDS011;26385;48.470;7.938;2022-07-10T01:56:03;5.45;;;4.95;;
20754;SDS011;26385;48.470;7.938;2022-07-10T01:58:30;5.30;;;4.80;;
20754;SDS011;26385;48.470;7.938;2022-07-10T02:00:55;4.68;;;4.28;;
20754;SDS011;26385;48.470;7.938;2022-07-10T02:03:20;5.80;;;5.00;;
20754;SDS011;26385;48.470;7.938;2022-07-10T02:06:04;5.05;;;4.65;;
20754;SDS011;26385;48.470;7.938;2022-07-10T02:08:30;5.88;;;5.13;;
20754;SDS011;26385;48.470;7.938;2022-07-10T02:10:55;5.82;;;4.68;;
20754;SDS011;26385;48.470;7.938;2022-07-10T02:13:20;5.72;;;4.78;;
20754;SDS011;26385;48.470;7.938;2022-07-10T02:15:46;5.68;;;4.85;;
20754;SDS011;26385;48.470;7.938;2022-07-10T02:18:12;5.20;;;4.60;;
20754;SDS011;26385;48.470;7.938;2022-07-10T02:20:38;5.30;;;4.80;;
20754;SDS011;26385;48.470;7.938;2022-07-10T02:23:03;4.85;;;4.35;;
20754;SDS011;26385;48.470;7.938;2022-07-10T02:25:28;5.63;;;4.70;;
20754;SDS011;26385;48.470;7.938;2022-07-10T02:27:54;5.65;;;4.63;;
20754;SDS011;26385;48.470;7.938;2022-07-10T02:30:19;6.95;;;4.60;;
20754;SDS011;26385;48.470;7.938;2022-07-10T02:32:44;5.10;;;4.60;;
20754;SDS011;26385;48.470;7.938;2022-07-10T02:35:10;6.32;;;4.38;;
20754;SDS011;26385;48.470;7.938;2022-07-10T02:37:35;5.32;;;4.28;;
20754;SDS011;26385;48.470;7.938;2022-07-10T02:40:00;7.05;;;4.35;;
20754;SDS011;26385;48.470;7.938;2022-07-10T02:42:26;6.10;;;4.20;;
20754;SDS011;26385;48.470;7.938;2022-07-10T02:44:51;4.78;;;4.25;;
20754;SDS011;26385;48.470;7.938;2022-07-10T02:47:16;4.90;;;4.50;;
20754;SDS011;26385;48.470;7.938;2022-07-10T02:49:41;4.25;;;3.90;;
20754;SDS011;26385;48.470;7.938;2022-07-10T02:52:08;4.10;;;3.80;;
20754;SDS011;26385;48.470;7.938;2022-07-10T02:54:34;4.38;;;3.97;;
20754;SDS011;26385;48.470;7.938;2022-07-10T02:56:59;4.85;;;4.10;;
20754;SDS011;26385;48.470;7.938;2022-07-10T02:59:25;4.80;;;3.92;;
20754;SDS011;26385;48.470;7.938;2022-07-10T03:01:50;5.40;;;3.88;;
20754;SDS011;26385;48.470;7.938;2022-07-10T03:04:15;4.28;;;3.88;;
20754;SDS011;26385;48.470;7.938;2022-07-10T03:06:40;5.90;;;3.42;;
20754;SDS011;26385;48.470;7.938;2022-07-10T03:09:06;4.53;;;3.63;;
20754;SDS011;26385;48.470;7.938;2022-07-10T03:11:31;4.55;;;3.60;;
20754;SDS011;26385;48.470;7.938;2022-07-10T03:13:56;4.30;;;3.20;;
20754;SDS011;26385;48.470;7.938;2022-07-10T03:16:21;4.15;;;3.40;;
20754;SDS011;26385;48.470;7.938;2022-07-10T03:18:47;4.55;;;3.40;;
20754;SDS011;26385;48.470;7.938;2022-07-10T03:21:12;4.40;;;3.33;;
20754;SDS011;26385;48.470;7.938;2022-07-10T03:23:37;4.50;;;3.30;;
20754;SDS011;26385;48.470;7.938;2022-07-10T03:26:04;5.10;;;3.03;;
20754;SDS011;26385;48.470;7.938;2022-07-10T03:28:30;4.18;;;2.78;;
20754;SDS011;26385;48.470;7.938;2022-07-10T03:30:56;4.15;;;3.10;;
20754;SDS011;26385;48.470;7.938;2022-07-10T03:33:21;4.55;;;2.95;;
20754;SDS011;26385;48.470;7.938;2022-07-10T03:35:46;6.22;;;3.13;;
20754;SDS011;26385;48.470;7.938;2022-07-10T03:38:11;4.43;;;2.80;;
20754;SDS011;26385;48.470;7.938;2022-07-10T03:40:37;3.47;;;2.85;;
20754;SDS011;26385;48.470;7.938;2022-07-10T03:43:02;3.60;;;2.83;;
20754;SDS011;26385;48.470;7.938;2022-07-10T03:45:27;5.65;;;2.60;;
20754;SDS011;26385;48.470;7.938;2022-07-10T03:47:52;4.50;;;2.75;;
20754;SDS011;26385;48.470;7.938;2022-07-10T03:50:18;2.63;;;2.40;;
20754;SDS011;26385;48.470;7.938;2022-07-10T03:52:43;6.65;;;2.38;;
20754;SDS011;26385;48.470;7.938;2022-07-10T03:55:09;4.97;;;2.80;;
20754;SDS011;26385;48.470;7.938;2022-07-10T03:57:34;3.88;;;2.60;;
20754;SDS011;26385;48.470;7.938;2022-07-10T04:00:18;4.97;;;2.58;;
20754;SDS011;26385;48.470;7.938;2022-07-10T04:02:46;3.78;;;2.55;;
20754;SDS011;26385;48.470;7.938;2022-07-10T04:05:12;2.58;;;2.15;;
20754;SDS011;26385;48.470;7.938;2022-07-10T04:07:37;4.18;;;2.13;;
20754;SDS011;26385;48.470;7.938;2022-07-10T04:10:03;5.55;;;2.22;;
20754;SDS011;26385;48.470;7.938;2022-07-10T04:12:28;4.85;;;2.60;;
20754;SDS011;26385;48.470;7.938;2022-07-10T04:14:54;5.15;;;2.60;;
20754;SDS011;26385;48.470;7.938;2022-07-10T04:17:19;3.10;;;2.25;;
20754;SDS011;26385;48.470;7.938;2022-07-10T04:19:45;5.50;;;2.50;;
20754;SDS011;26385;48.470;7.938;2022-07-10T04:22:11;5.97;;;2.38;;
20754;SDS011;26385;48.470;7.938;2022-07-10T04:24:36;6.05;;;2.50;;
20754;SDS011;26385;48.470;7.938;2022-07-10T04:27:02;2.88;;;2.22;;
20754;SDS011;26385;48.470;7.938;2022-07-10T04:29:27;4.50;;;2.22;;
20754;SDS011;26385;48.470;7.938;2022-07-10T04:31:52;4.65;;;2.20;;
20754;SDS011;26385;48.470;7.938;2022-07-10T04:34:18;3.65;;;2.20;;
20754;SDS011;26385;48.470;7.938;2022-07-10T04:36:43;4.15;;;2.28;;
20754;SDS011;26385;48.470;7.938;2022-07-10T04:39:08;4.20;;;2.03;;
20754;SDS011;26385;48.470;7.938;2022-07-10T04:41:34;3.50;;;2.08;;
20754;SDS011;26385;48.470;7.938;2022-07-10T04:43:59;4.38;;;2.55;;
20754;SDS011;26385;48.470;7.938;2022-07-10T04:46:24;5.13;;;2.10;;
20754;SDS011;26385;48.470;7.938;2022-07-10T04:48:50;5.40;;;2.10;;
20754;SDS011;26385;48.470;7.938;2022-07-10T04:51:15;4.20;;;2.13;;
20754;SDS011;26385;48.470;7.938;2022-07-10T04:53:41;5.10;;;2.05;;
20754;SDS011;26385;48.470;7.938;2022-07-10T04:56:06;3.83;;;2.00;;
20754;SDS011;26385;48.470;7.938;2022-07-10T04:58:31;3.80;;;2.65;;
20754;SDS011;26385;48.470;7.938;2022-07-10T05:00:57;3.42;;;2.15;;
20754;SDS011;26385;48.470;7.938;2022-07-10T05:03:22;3.42;;;2.03;;
20754;SDS011;26385;48.470;7.938;2022-07-10T05:05:47;5.45;;;2.00;;
20754;SDS011;26385;48.470;7.938;2022-07-10T05:08:13;5.15;;;2.03;;
20754;SDS011;26385;48.470;7.938;2022-07-10T05:10:38;5.03;;;2.20;;
20754;SDS011;26385;48.470;7.938;2022-07-10T05:13:04;4.07;;;2.17;;
20754;SDS011;26385;48.470;7.938;2022-07-10T05:15:30;7.32;;;2.67;;
20754;SDS011;26385;48.470;7.938;2022-07-10T05:17:55;5.85;;;2.20;;
20754;SDS011;26385;48.470;7.938;2022-07-10T05:20:20;3.40;;;1.90;;
20754;SDS011;26385;48.470;7.938;2022-07-10T05:22:46;4.07;;;1.90;;
20754;SDS011;26385;48.470;7.938;2022-07-10T05:25:11;4.05;;;2.03;;
20754;SDS011;26385;48.470;7.938;2022-07-10T05:27:36;2.60;;;1.75;;
20754;SDS011;26385;48.470;7.938;2022-07-10T05:30:02;2.42;;;1.83;;
20754;SDS011;26385;48.470;7.938;2022-07-10T05:32:27;3.30;;;1.73;;
20754;SDS011;26385;48.470;7.938;2022-07-10T05:34:52;4.75;;;2.05;;
20754;SDS011;26385;48.470;7.938;2022-07-10T05:37:17;3.95;;;1.80;;
20754;SDS011;26385;48.470;7.938;2022-07-10T05:39:43;3.83;;;2.08;;
20754;SDS011;26385;48.470;7.938;2022-07-10T05:42:08;5.68;;;1.90;;
20754;SDS011;26385;48.470;7.938;2022-07-10T05:44:34;3.40;;;2.10;;
20754;SDS011;26385;48.470;7.938;2022-07-10T05:46:59;4.18;;;1.95;;
20754;SDS011;26385;48.470;7.938;2022-07-10T05:49:24;2.45;;;1.95;;
20754;SDS011;26385;48.470;7.938;2022-07-10T05:51:50;3.80;;;2.30;;
20754;SDS011;26385;48.470;7.938;2022-07-10T05:54:15;7.22;;;1.92;;
20754;SDS011;26385;48.470;7.938;2022-07-10T05:56:40;3.60;;;1.77;;
20754;SDS011;26385;48.470;7.938;2022-07-10T05:59:06;3.40;;;1.70;;
20754;SDS011;26385;48.470;7.938;2022-07-10T06:01:31;4.90;;;2.00;;
20754;SDS011;26385;48.470;7.938;2022-07-10T06:03:56;3.97;;;1.90;;
20754;SDS011;26385;48.470;7.938;2022-07-10T06:06:21;3.25;;;2.28;;
20754;SDS011;26385;48.470;7.938;2022-07-10T06:08:47;5.28;;;2.00;;
20754;SDS011;26385;48.470;7.938;2022-07-10T06:11:12;3.85;;;1.90;;
20754;SDS011;26385;48.470;7.938;2022-07-10T06:13:38;2.92;;;2.10;;
20754;SDS011;26385;48.470;7.938;2022-07-10T06:16:04;2.95;;;1.80;;
20754;SDS011;26385;48.470;7.938;2022-07-10T06:18:30;5.72;;;2.00;;
20754;SDS011;26385;48.470;7.938;2022-07-10T06:20:57;4.25;;;2.03;;
20754;SDS011;26385;48.470;7.938;2022-07-10T06:23:23;4.95;;;1.90;;
20754;SDS011;26385;48.470;7.938;2022-07-10T06:25:48;2.63;;;1.80;;
20754;SDS011;26385;48.470;7.938;2022-07-10T06:28:14;4.72;;;2.00;;
20754;SDS011;26385;48.470;7.938;2022-07-10T06:30:43;4.78;;;1.70;;
20754;SDS011;26385;48.470;7.938;2022-07-10T06:33:08;3.80;;;1.90;;
20754;SDS011;26385;48.470;7.938;2022-07-10T06:35:34;3.33;;;1.90;;
20754;SDS011;26385;48.470;7.938;2022-07-10T06:37:59;3.83;;;1.92;;
20754;SDS011;26385;48.470;7.938;2022-07-10T06:40:26;4.88;;;2.10;;
20754;SDS011;26385;48.470;7.938;2022-07-10T06:42:53;3.95;;;1.80;;
20754;SDS011;26385;48.470;7.938;2022-07-10T06:45:19;5.32;;;1.95;;
20754;SDS011;26385;48.470;7.938;2022-07-10T06:47:44;5.60;;;2.00;;
20754;SDS011;26385;48.470;7.938;2022-07-10T06:50:22;4.30;;;1.77;;
20754;SDS011;26385;48.470;7.938;2022-07-10T06:52:49;3.10;;;1.77;;
20754;SDS011;26385;48.470;7.938;2022-07-10T06:55:14;5.10;;;2.00;;
20754;SDS011;26385;48.470;7.938;2022-07-10T06:57:40;3.58;;;1.98;;
20754;SDS011;26385;48.470;7.938;2022-07-10T07:00:06;5.80;;;2.22;;
20754;SDS011;26385;48.470;7.938;2022-07-10T07:02:32;3.45;;;2.30;;
20754;SDS011;26385;48.470;7.938;2022-07-10T07:04:57;4.25;;;2.08;;
20754;SDS011;26385;48.470;7.938;2022-07-10T07:07:23;4.53;;;1.80;;
20754;SDS011;26385;48.470;7.938;2022-07-10T07:09:48;5.50;;;2.00;;
20754;SDS011;26385;48.470;7.938;2022-07-10T07:12:17;3.95;;;2.13;;
20754;SDS011;26385;48.470;7.938;2022-07-10T07:14:45;4.70;;;2.20;;
20754;SDS011;26385;48.470;7.938;2022-07-10T07:17:10;4.00;;;1.90;;
20754;SDS011;26385;48.470;7.938;2022-07-10T07:19:37;4.20;;;1.88;;
20754;SDS011;26385;48.470;7.938;2022-07-10T07:22:22;4.53;;;1.98;;
20754;SDS011;26385;48.470;7.938;2022-07-10T07:25:06;3.97;;;1.90;;
20754;SDS011;26385;48.470;7.938;2022-07-10T07:27:34;6.05;;;2.20;;
20754;SDS011;26385;48.470;7.938;2022-07-10T07:30:10;5.57;;;2.17;;
20754;SDS011;26385;48.470;7.938;2022-07-10T07:32:42;6.25;;;1.90;;
20754;SDS011;26385;48.470;7.938;2022-07-10T07:35:08;3.15;;;2.00;;
20754;SDS011;26385;48.470;7.938;2022-07-10T07:37:55;5.00;;;2.17;;
20754;SDS011;26385;48.470;7.938;2022-07-10T07:40:21;5.15;;;2.10;;
20754;SDS011;26385;48.470;7.938;2022-07-10T07:42:51;5.15;;;2.47;;
20754;SDS011;26385;48.470;7.938;2022-07-10T07:45:19;5.70;;;2.33;;
20754;SDS011;26385;48.470;7.938;2022-07-10T07:47:46;4.22;;;2.20;;
20754;SDS011;26385;48.470;7.938;2022-07-10T07:50:13;2.65;;;2.30;;
20754;SDS011;26385;48.470;7.938;2022-07-10T07:52:45;4.55;;;2.28;;
20754;SDS011;26385;48.470;7.938;2022-07-10T07:55:12;3.05;;;2.08;;
20754;SDS011;26385;48.470;7.938;2022-07-10T07:57:39;5.65;;;2.00;;
20754;SDS011;26385;48.470;7.938;2022-07-10T08:00:05;3.10;;;2.00;;
20754;SDS011;26385;48.470;7.938;2022-07-10T08:02:32;6.43;;;2.55;;
20754;SDS011;26385;48.470;7.938;2022-07-10T08:04:58;2.53;;;2.17;;
20754;SDS011;26385;48.470;7.938;2022-07-10T08:07:23;4.18;;;2.40;;
20754;SDS011;26385;48.470;7.938;2022-07-10T08:09:58;3.28;;;2.30;;
20754;SDS011;26385;48.470;7.938;2022-07-10T08:12:23;6.20;;;2.47;;
20754;SDS011;26385;48.470;7.938;2022-07-10T08:14:48;4.95;;;2.60;;
20754;SDS011;26385;48.470;7.938;2022-07-10T08:17:14;5.90;;;2.47;;
20754;SDS011;26385;48.470;7.938;2022-07-10T08:19:39;3.13;;;2.08;;
20754;SDS011;26385;48.470;7.938;2022-07-10T08:22:04;3.70;;;2.37;;
20754;SDS011;26385;48.470;7.938;2022-07-10T08:24:30;5.85;;;2.63;;
20754;SDS011;26385;48.470;7.938;2022-07-10T08:26:55;5.13;;;2.25;;
20754;SDS011;26385;48.470;7.938;2022-07-10T08:29:20;4.45;;;2.10;;
20754;SDS011;26385;48.470;7.938;2022-07-10T08:31:46;4.60;;;1.92;;
20754;SDS011;26385;48.470;7.938;2022-07-10T08:34:11;3.13;;;2.00;;
20754;SDS011;26385;48.470;7.938;2022-07-10T08:36:36;4.13;;;2.00;;
20754;SDS011;26385;48.470;7.938;2022-07-10T08:39:02;4.00;;;2.10;;
20754;SDS011;26385;48.470;7.938;2022-07-10T08:41:27;3.03;;;2.08;;
20754;SDS011;26385;48.470;7.938;2022-07-10T08:43:53;3.92;;;2.20;;
20754;SDS011;26385;48.470;7.938;2022-07-10T08:46:18;4.53;;;2.35;;
20754;SDS011;26385;48.470;7.938;2022-07-10T08:48:47;3.70;;;1.90;;
20754;SDS011;26385;48.470;7.938;2022-07-10T08:51:15;4.97;;;2.28;;
20754;SDS011;26385;48.470;7.938;2022-07-10T08:53:49;3.85;;;2.05;;
20754;SDS011;26385;48.470;7.938;2022-07-10T08:56:16;4.40;;;2.20;;
20754;SDS011;26385;48.470;7.938;2022-07-10T08:58:41;2.37;;;1.97;;
20754;SDS011;26385;48.470;7.938;2022-07-10T09:01:07;5.32;;;2.20;;
20754;SDS011;26385;48.470;7.938;2022-07-10T09:03:32;4.50;;;2.30;;
20754;SDS011;26385;48.470;7.938;2022-07-10T09:05:58;5.18;;;2.10;;
20754;SDS011;26385;48.470;7.938;2022-07-10T09:08:24;3.73;;;2.03;;
20754;SDS011;26385;48.470;7.938;2022-07-10T09:11:14;3.25;;;1.80;;
20754;SDS011;26385;48.470;7.938;2022-07-10T09:13:53;5.35;;;2.15;;
20754;SDS011;26385;48.470;7.938;2022-07-10T09:16:21;5.07;;;1.90;;
20754;SDS011;26385;48.470;7.938;2022-07-10T09:18:48;4.32;;;2.00;;
20754;SDS011;26385;48.470;7.938;2022-07-10T09:21:13;3.90;;;1.83;;
20754;SDS011;26385;48.470;7.938;2022-07-10T09:23:38;2.17;;;1.70;;
20754;SDS011;26385;48.470;7.938;2022-07-10T09:26:04;4.63;;;1.93;;
20754;SDS011;26385;48.470;7.938;2022-07-10T09:28:29;5.70;;;2.00;;
20754;SDS011;26385;48.470;7.938;2022-07-10T09:30:54;4.78;;;2.00;;
20754;SDS011;26385;48.470;7.938;2022-07-10T09:33:22;4.93;;;2.15;;
20754;SDS011;26385;48.470;7.938;2022-07-10T09:36:01;2.85;;;2.03;;
20754;SDS011;26385;48.470;7.938;2022-07-10T09:41:12;5.82;;;2.42;;
20754;SDS011;26385;48.470;7.938;2022-07-10T09:43:43;25.45;;;11.85;;
20754;SDS011;26385;48.470;7.938;2022-07-10T09:46:10;56.20;;;32.38;;
20754;SDS011;26385;48.470;7.938;2022-07-10T09:48:35;27.27;;;14.50;;
20754;SDS011;26385;48.470;7.938;2022-07-10T09:51:00;21.93;;;10.63;;
20754;SDS011;26385;48.470;7.938;2022-07-10T09:53:26;27.58;;;12.68;;
20754;SDS011;26385;48.470;7.938;2022-07-10T09:55:52;25.10;;;13.88;;
20754;SDS011;26385;48.470;7.938;2022-07-10T09:58:21;14.45;;;9.05;;
20754;SDS011;26385;48.470;7.938;2022-07-10T10:00:52;34.17;;;17.85;;
20754;SDS011;26385;48.470;7.938;2022-07-10T10:03:20;17.00;;;8.75;;
20754;SDS011;26385;48.470;7.938;2022-07-10T10:05:53;11.65;;;6.10;;
20754;SDS011;26385;48.470;7.938;2022-07-10T10:08:29;15.77;;;8.32;;
20754;SDS011;26385;48.470;7.938;2022-07-10T10:10:59;7.25;;;3.80;;
20754;SDS011;26385;48.470;7.938;2022-07-10T10:13:27;6.35;;;3.58;;
20754;SDS011;26385;48.470;7.938;2022-07-10T10:15:53;8.07;;;4.22;;
20754;SDS011;26385;48.470;7.938;2022-07-10T10:18:23;6.00;;;4.22;;
20754;SDS011;26385;48.470;7.938;2022-07-10T10:20:51;12.80;;;5.45;;
20754;SDS011;26385;48.470;7.938;2022-07-10T10:23:18;6.78;;;3.25;;
20754;SDS011;26385;48.470;7.938;2022-07-10T10:25:45;5.65;;;2.85;;
20754;SDS011;26385;48.470;7.938;2022-07-10T10:28:12;4.68;;;2.50;;
20754;SDS011;26385;48.470;7.938;2022-07-10T10:30:42;3.78;;;2.60;;
20754;SDS011;26385;48.470;7.938;2022-07-10T10:35:55;5.75;;;2.67;;
20754;SDS011;26385;48.470;7.938;2022-07-10T10:38:21;5.03;;;3.10;;
20754;SDS011;26385;48.470;7.938;2022-07-10T10:40:47;6.53;;;2.40;;
20754;SDS011;26385;48.470;7.938;2022-07-10T10:43:22;7.25;;;3.53;;
20754;SDS011;26385;48.470;7.938;2022-07-10T10:45:49;4.78;;;2.88;;
20754;SDS011;26385;48.470;7.938;2022-07-10T10:48:15;3.15;;;1.80;;
20754;SDS011;26385;48.470;7.938;2022-07-10T10:50:45;5.00;;;2.35;;
20754;SDS011;26385;48.470;7.938;2022-07-10T10:53:14;4.25;;;1.90;;
20754;SDS011;26385;48.470;7.938;2022-07-10T10:58:24;4.40;;;2.42;;
20754;SDS011;26385;48.470;7.938;2022-07-10T11:00:51;3.92;;;1.52;;
20754;SDS011;26385;48.470;7.938;2022-07-10T11:03:18;4.97;;;2.40;;
20754;SDS011;26385;48.470;7.938;2022-07-10T11:05:45;6.50;;;3.17;;
20754;SDS011;26385;48.470;7.938;2022-07-10T11:08:12;3.63;;;1.80;;
20754;SDS011;26385;48.470;7.938;2022-07-10T11:10:42;4.20;;;1.70;;
20754;SDS011;26385;48.470;7.938;2022-07-10T11:15:44;2.55;;;1.65;;
20754;SDS011;26385;48.470;7.938;2022-07-10T11:18:12;4.32;;;2.00;;
20754;SDS011;26385;48.470;7.938;2022-07-10T11:20:42;3.45;;;1.48;;
20754;SDS011;26385;48.470;7.938;2022-07-10T11:26:12;2.78;;;1.70;;
20754;SDS011;26385;48.470;7.938;2022-07-10T11:28:50;2.83;;;1.50;;
20754;SDS011;26385;48.470;7.938;2022-07-10T11:31:23;4.32;;;1.50;;
20754;SDS011;26385;48.470;7.938;2022-07-10T11:33:51;2.50;;;1.58;;
20754;SDS011;26385;48.470;7.938;2022-07-10T11:36:19;1.95;;;1.67;;
20754;SDS011;26385;48.470;7.938;2022-07-10T11:38:47;4.05;;;1.92;;
20754;SDS011;26385;48.470;7.938;2022-07-10T11:43:46;2.75;;;1.50;;
20754;SDS011;26385;48.470;7.938;2022-07-10T11:46:23;3.13;;;1.17;;
20754;SDS011;26385;48.470;7.938;2022-07-10T11:48:50;2.75;;;1.40;;
20754;SDS011;26385;48.470;7.938;2022-07-10T11:51:18;2.97;;;1.40;;
20754;SDS011;26385;48.470;7.938;2022-07-10T11:56:41;2.40;;;1.33;;
20754;SDS011;26385;48.470;7.938;2022-07-10T11:59:11;2.33;;;1.30;;
20754;SDS011;26385;48.470;7.938;2022-07-10T12:01:42;2.30;;;1.20;;
20754;SDS011;26385;48.470;7.938;2022-07-10T12:04:12;2.55;;;1.17;;
20754;SDS011;26385;48.470;7.938;2022-07-10T12:06:39;4.03;;;1.20;;
20754;SDS011;26385;48.470;7.938;2022-07-10T12:09:10;3.22;;;2.13;;
20754;SDS011;26385;48.470;7.938;2022-07-10T12:11:39;1.90;;;1.23;;
20754;SDS011;26385;48.470;7.938;2022-07-10T12:14:16;2.78;;;1.23;;
20754;SDS011;26385;48.470;7.938;2022-07-10T12:16:43;2.63;;;0.90;;
20754;SDS011;26385;48.470;7.938;2022-07-10T12:19:14;2.75;;;1.00;;
20754;SDS011;26385;48.470;7.938;2022-07-10T12:21:44;2.88;;;1.10;;
20754;SDS011;26385;48.470;7.938;2022-07-10T12:24:12;1.77;;;1.00;;
20754;SDS011;26385;48.470;7.938;2022-07-10T12:26:40;1.77;;;1.02;;
20754;SDS011;26385;48.470;7.938;2022-07-10T12:29:10;2.05;;;1.05;;
20754;SDS011;26385;48.470;7.938;2022-07-10T12:31:47;2.00;;;1.00;;
20754;SDS011;26385;48.470;7.938;2022-07-10T12:34:14;1.88;;;0.88;;
20754;SDS011;26385;48.470;7.938;2022-07-10T12:36:41;2.75;;;1.10;;
20754;SDS011;26385;48.470;7.938;2022-07-10T12:39:08;2.05;;;1.10;;
20754;SDS011;26385;48.470;7.938;2022-07-10T12:41:34;1.90;;;1.00;;
20754;SDS011;26385;48.470;7.938;2022-07-10T12:44:29;2.58;;;1.00;;
20754;SDS011;26385;48.470;7.938;2022-07-10T12:47:02;3.60;;;0.90;;
20754;SDS011;26385;48.470;7.938;2022-07-10T12:49:28;1.02;;;0.80;;
20754;SDS011;26385;48.470;7.938;2022-07-10T12:51:54;2.33;;;0.90;;
20754;SDS011;26385;48.470;7.938;2022-07-10T12:57:06;1.73;;;1.00;;
20754;SDS011;26385;48.470;7.938;2022-07-10T12:59:34;1.98;;;0.90;;
20754;SDS011;26385;48.470;7.938;2022-07-10T13:02:20;1.42;;;0.80;;
20754;SDS011;26385;48.470;7.938;2022-07-10T13:04:56;2.85;;;1.00;;
20754;SDS011;26385;48.470;7.938;2022-07-10T13:07:29;1.20;;;0.82;;
20754;SDS011;26385;48.470;7.938;2022-07-10T13:09:55;4.30;;;1.10;;
20754;SDS011;26385;48.470;7.938;2022-07-10T13:12:21;1.93;;;0.80;;
20754;SDS011;26385;48.470;7.938;2022-07-10T13:14:46;1.13;;;0.85;;
20754;SDS011;26385;48.470;7.938;2022-07-10T13:17:11;3.53;;;1.00;;
20754;SDS011;26385;48.470;7.938;2022-07-10T13:19:37;1.42;;;0.90;;
20754;SDS011;26385;48.470;7.938;2022-07-10T13:22:02;1.80;;;1.00;;
20754;SDS011;26385;48.470;7.938;2022-07-10T13:24:27;1.60;;;0.88;;
20754;SDS011;26385;48.470;7.938;2022-07-10T13:26:53;1.63;;;0.90;;
20754;SDS011;26385;48.470;7.938;2022-07-10T13:29:21;1.13;;;0.95;;
20754;SDS011;26385;48.470;7.938;2022-07-10T13:31:47;4.28;;;0.90;;
20754;SDS011;26385;48.470;7.938;2022-07-10T13:34:12;1.07;;;0.70;;
20754;SDS011;26385;48.470;7.938;2022-07-10T13:36:37;1.83;;;0.90;;
20754;SDS011;26385;48.470;7.938;2022-07-10T13:39:03;1.58;;;0.90;;
20754;SDS011;26385;48.470;7.938;2022-07-10T13:41:28;4.50;;;1.40;;
20754;SDS011;26385;48.470;7.938;2022-07-10T13:43:53;2.27;;;0.90;;
20754;SDS011;26385;48.470;7.938;2022-07-10T13:46:18;2.07;;;0.90;;
20754;SDS011;26385;48.470;7.938;2022-07-10T13:48:44;2.22;;;0.90;;
20754;SDS011;26385;48.470;7.938;2022-07-10T13:51:09;3.65;;;0.88;;
20754;SDS011;26385;48.470;7.938;2022-07-10T13:53:35;1.52;;;0.77;;
20754;SDS011;26385;48.470;7.938;2022-07-10T13:56:00;1.23;;;0.70;;
20754;SDS011;26385;48.470;7.938;2022-07-10T13:58:26;2.67;;;0.90;;
20754;SDS011;26385;48.470;7.938;2022-07-10T14:00:51;2.92;;;0.93;;
20754;SDS011;26385;48.470;7.938;2022-07-10T14:03:17;2.65;;;0.80;;
20754;SDS011;26385;48.470;7.938;2022-07-10T14:05:42;2.33;;;0.80;;
20754;SDS011;26385;48.470;7.938;2022-07-10T14:08:07;2.75;;;0.90;;
20754;SDS011;26385;48.470;7.938;2022-07-10T14:10:32;1.30;;;0.75;;
20754;SDS011;26385;48.470;7.938;2022-07-10T14:12:58;1.42;;;0.80;;
20754;SDS011;26385;48.470;7.938;2022-07-10T14:15:23;1.35;;;0.80;;
20754;SDS011;26385;48.470;7.938;2022-07-10T14:17:50;1.05;;;0.70;;
20754;SDS011;26385;48.470;7.938;2022-07-10T14:20:16;5.55;;;1.10;;
20754;SDS011;26385;48.470;7.938;2022-07-10T14:22:42;2.15;;;0.90;;
20754;SDS011;26385;48.470;7.938;2022-07-10T14:25:10;1.75;;;0.80;;
20754;SDS011;26385;48.470;7.938;2022-07-10T14:27:36;1.38;;;0.90;;
20754;SDS011;26385;48.470;7.938;2022-07-10T14:30:01;1.83;;;0.90;;
20754;SDS011;26385;48.470;7.938;2022-07-10T14:32:28;2.60;;;0.75;;
20754;SDS011;26385;48.470;7.938;2022-07-10T14:34:53;2.17;;;1.00;;
20754;SDS011;26385;48.470;7.938;2022-07-10T14:37:18;2.47;;;0.90;;
20754;SDS011;26385;48.470;7.938;2022-07-10T14:39:44;2.87;;;1.10;;
20754;SDS011;26385;48.470;7.938;2022-07-10T14:42:11;2.47;;;0.80;;
20754;SDS011;26385;48.470;7.938;2022-07-10T14:44:37;2.03;;;0.98;;
20754;SDS011;26385;48.470;7.938;2022-07-10T14:47:02;3.58;;;1.55;;
20754;SDS011;26385;48.470;7.938;2022-07-10T14:49:28;1.55;;;0.90;;
20754;SDS011;26385;48.470;7.938;2022-07-10T14:51:53;3.40;;;0.90;;
20754;SDS011;26385;48.470;7.938;2022-07-10T14:54:20;1.77;;;0.90;;
20754;SDS011;26385;48.470;7.938;2022-07-10T14:56:45;2.50;;;1.00;;
20754;SDS011;26385;48.470;7.938;2022-07-10T14:59:10;2.55;;;1.02;;
20754;SDS011;26385;48.470;7.938;2022-07-10T15:01:36;3.07;;;0.90;;
20754;SDS011;26385;48.470;7.938;2022-07-10T15:04:01;3.30;;;1.10;;
20754;SDS011;26385;48.470;7.938;2022-07-10T15:06:26;2.25;;;1.08;;
20754;SDS011;26385;48.470;7.938;2022-07-10T15:08:52;2.65;;;1.48;;